sensor_id;sensor_type;location;lat;lon;timestamp;temperature;humidity
1277;DHT22;631;51.024;13.826;2022-07-23T00:02:20;20.10;1.00
1277;DHT22;631;51.024;13.826;2022-07-23T00:04:46;20.00;1.00
1277;DHT22;631;51.024;13.826;2022-07-23T00:07:11;20.00;1.00
1277;DHT22;631;51.024;13.826;2022-07-23T00:09:37;19.90;1.00
1277;DHT22;631;51.024;13.826;2022-07-23T00:12:03;19.90;1.00
1277;DHT22;631;51.024;13.826;2022-07-23T00:14:29;19.90;1.00
1277;DHT22;631;51.024;13.826;2022-07-23T00:16:54;19.80;1.00
1277;DHT22;631;51.024;13.826;2022-07-23T00:19:20;19.80;1.00
1277;DHT22;631;51.024;13.826;2022-07-23T00:21:46;19.80;1.00
1277;DHT22;631;51.024;13.826;2022-07-23T00:24:11;19.70;1.00
1277;DHT22;631;51.024;13.826;2022-07-23T00:26:37;19.70;1.00
1277;DHT22;631;51.024;13.826;2022-07-23T00:29:02;19.60;1.00
1277;DHT22;631;51.024;13.826;2022-07-23T00:31:28;19.60;1.00
1277;DHT22;631;51.024;13.826;2022-07-23T00:33:53;19.50;1.00
1277;DHT22;631;51.024;13.826;2022-07-23T00:36:22;19.50;1.00
1277;DHT22;631;51.024;13.826;2022-07-23T00:38:49;19.50;1.00
1277;DHT22;631;51.024;13.826;2022-07-23T00:41:15;19.40;1.00
1277;DHT22;631;51.024;13.826;2022-07-23T00:43:42;19.30;1.00
1277;DHT22;631;51.024;13.826;2022-07-23T00:46:07;19.30;1.00
1277;DHT22;631;51.024;13.826;2022-07-23T00:48:33;19.30;1.00
1277;DHT22;631;51.024;13.826;2022-07-23T00:50:59;19.30;1.00
1277;DHT22;631;51.024;13.826;2022-07-23T00:53:24;19.30;1.00
1277;DHT22;631;51.024;13.826;2022-07-23T00:55:50;19.30;1.00
1277;DHT22;631;51.024;13.826;2022-07-23T00:58:17;19.30;1.00
1277;DHT22;631;51.024;13.826;2022-07-23T01:00:43;19.30;1.00
1277;DHT22;631;51.024;13.826;2022-07-23T01:03:09;19.20;1.00
1277;DHT22;631;51.024;13.826;2022-07-23T01:05:35;19.30;1.00
1277;DHT22;631;51.024;13.826;2022-07-23T01:08:01;19.30;1.00
1277;DHT22;631;51.024;13.826;2022-07-23T01:10:26;19.20;1.00
1277;DHT22;631;51.024;13.826;2022-07-23T01:13:00;19.30;1.00
1277;DHT22;631;51.024;13.826;2022-07-23T01:15:26;19.20;1.00
1277;DHT22;631;51.024;13.826;2022-07-23T01:17:51;19.20;1.00
1277;DHT22;631;51.024;13.826;2022-07-23T01:20:17;19.20;1.00
1277;DHT22;631;51.024;13.826;2022-07-23T01:22:43;19.20;1.00
1277;DHT22;631;51.024;13.826;2022-07-23T01:25:09;19.20;1.00
1277;DHT22;631;51.024;13.826;2022-07-23T01:27:35;19.20;1.00
1277;DHT22;631;51.024;13.826;2022-07-23T01:30:03;19.20;1.00
1277;DHT22;631;51.024;13.826;2022-07-23T01:32:29;19.20;1.00
1277;DHT22;631;51.024;13.826;2022-07-23T01:34:54;19.20;1.00
1277;DHT22;631;51.024;13.826;2022-07-23T01:37:20;19.20;1.00
1277;DHT22;631;51.024;13.826;2022-07-23T01:39:45;19.20;1.00
1277;DHT22;631;51.024;13.826;2022-07-23T01:42:11;19.20;1.00
1277;DHT22;631;51.024;13.826;2022-07-23T01:44:37;19.20;1.00
1277;DHT22;631;51.024;13.826;2022-07-23T01:47:02;19.10;1.00
1277;DHT22;631;51.024;13.826;2022-07-23T01:49:28;19.10;1.00
1277;DHT22;631;51.024;13.826;2022-07-23T01:51:54;19.10;1.00
1277;DHT22;631;51.024;13.826;2022-07-23T01:54:30;19.10;1.00
1277;DHT22;631;51.024;13.826;2022-07-23T01:56:56;19.00;1.00
1277;DHT22;631;51.024;13.826;2022-07-23T01:59:22;19.00;1.00
1277;DHT22;631;51.024;13.826;2022-07-23T02:01:47;18.90;1.00
1277;DHT22;631;51.024;13.826;2022-07-23T02:04:16;18.90;1.00
1277;DHT22;631;51.024;13.826;2022-07-23T02:06:42;18.90;1.00
1277;DHT22;631;51.024;13.826;2022-07-23T02:09:07;18.80;1.00
1277;DHT22;631;51.024;13.826;2022-07-23T02:11:33;18.80;1.00
1277;DHT22;631;51.024;13.826;2022-07-23T02:13:59;18.80;1.00
1277;DHT22;631;51.024;13.826;2022-07-23T02:16:24;18.80;1.00
1277;DHT22;631;51.024;13.826;2022-07-23T02:18:50;18.80;1.00
1277;DHT22;631;51.024;13.826;2022-07-23T02:21:16;18.70;1.00
1277;DHT22;631;51.024;13.826;2022-07-23T02:23:41;18.70;1.00
1277;DHT22;631;51.024;13.826;2022-07-23T02:26:07;18.70;1.00
1277;DHT22;631;51.024;13.826;2022-07-23T02:28:32;18.70;1.00
1277;DHT22;631;51.024;13.826;2022-07-23T02:30:58;18.60;1.00
1277;DHT22;631;51.024;13.826;2022-07-23T02:33:24;18.60;1.00
1277;DHT22;631;51.024;13.826;2022-07-23T02:35:49;18.60;1.00
1277;DHT22;631;51.024;13.826;2022-07-23T02:38:15;18.60;1.00
1277;DHT22;631;51.024;13.826;2022-07-23T02:40:40;18.60;1.00
1277;DHT22;631;51.024;13.826;2022-07-23T02:43:06;18.60;1.00
1277;DHT22;631;51.024;13.826;2022-07-23T02:45:31;18.60;1.00
1277;DHT22;631;51.024;13.826;2022-07-23T02:47:57;18.60;1.00
1277;DHT22;631;51.024;13.826;2022-07-23T02:50:23;18.60;1.00
1277;DHT22;631;51.024;13.826;2022-07-23T02:52:48;18.60;1.00
1277;DHT22;631;51.024;13.826;2022-07-23T02:55:14;18.60;1.00
1277;DHT22;631;51.024;13.826;2022-07-23T02:57:40;18.60;1.00
1277;DHT22;631;51.024;13.826;2022-07-23T03:00:06;18.60;1.00
1277;DHT22;631;51.024;13.826;2022-07-23T03:02:32;18.60;1.00
1277;DHT22;631;51.024;13.826;2022-07-23T03:04:58;18.60;1.00
1277;DHT22;631;51.024;13.826;2022-07-23T03:07:24;18.60;1.00
1277;DHT22;631;51.024;13.826;2022-07-23T03:09:49;18.60;1.00
1277;DHT22;631;51.024;13.826;2022-07-23T03:12:15;18.60;1.00
1277;DHT22;631;51.024;13.826;2022-07-23T03:14:41;18.60;1.00
1277;DHT22;631;51.024;13.826;2022-07-23T03:17:07;18.60;1.00
1277;DHT22;631;51.024;13.826;2022-07-23T03:19:32;18.60;1.40
1277;DHT22;631;51.024;13.826;2022-07-23T03:21:59;18.60;1.00
1277;DHT22;631;51.024;13.826;2022-07-23T03:24:24;18.60;1.00
1277;DHT22;631;51.024;13.826;2022-07-23T03:27:10;18.60;1.00
1277;DHT22;631;51.024;13.826;2022-07-23T03:29:36;18.60;1.00
1277;DHT22;631;51.024;13.826;2022-07-23T03:32:05;18.60;1.00
1277;DHT22;631;51.024;13.826;2022-07-23T03:34:31;18.60;1.00
1277;DHT22;631;51.024;13.826;2022-07-23T03:36:57;18.60;1.00
1277;DHT22;631;51.024;13.826;2022-07-23T03:39:22;18.60;1.00
1277;DHT22;631;51.024;13.826;2022-07-23T03:41:48;18.60;1.00
1277;DHT22;631;51.024;13.826;2022-07-23T03:44:13;18.60;1.00
1277;DHT22;631;51.024;13.826;2022-07-23T03:46:39;18.60;1.00
1277;DHT22;631;51.024;13.826;2022-07-23T03:49:05;18.60;1.00
1277;DHT22;631;51.024;13.826;2022-07-23T03:51:30;18.60;1.00
1277;DHT22;631;51.024;13.826;2022-07-23T03:53:56;18.70;1.00
1277;DHT22;631;51.024;13.826;2022-07-23T03:56:21;18.70;1.00
1277;DHT22;631;51.024;13.826;2022-07-23T03:58:47;18.80;1.00
1277;DHT22;631;51.024;13.826;2022-07-23T04:01:13;18.80;1.00
1277;DHT22;631;51.024;13.826;2022-07-23T04:03:38;18.90;1.00
1277;DHT22;631;51.024;13.826;2022-07-23T04:06:05;19.00;1.00
1277;DHT22;631;51.024;13.826;2022-07-23T04:08:31;18.90;1.00
1277;DHT22;631;51.024;13.826;2022-07-23T04:10:56;18.90;1.00
1277;DHT22;631;51.024;13.826;2022-07-23T04:13:22;18.90;1.00
1277;DHT22;631;51.024;13.826;2022-07-23T04:15:47;19.00;1.00
1277;DHT22;631;51.024;13.826;2022-07-23T04:18:13;18.90;1.00
1277;DHT22;631;51.024;13.826;2022-07-23T04:20:38;18.90;1.00
1277;DHT22;631;51.024;13.826;2022-07-23T04:23:04;18.90;1.00
1277;DHT22;631;51.024;13.826;2022-07-23T04:25:30;18.90;1.00
1277;DHT22;631;51.024;13.826;2022-07-23T04:27:55;19.00;1.00
1277;DHT22;631;51.024;13.826;2022-07-23T04:30:21;19.00;1.00
1277;DHT22;631;51.024;13.826;2022-07-23T04:32:46;19.10;1.00
1277;DHT22;631;51.024;13.826;2022-07-23T04:35:12;19.20;1.00
1277;DHT22;631;51.024;13.826;2022-07-23T04:37:37;19.20;1.00
1277;DHT22;631;51.024;13.826;2022-07-23T04:40:04;19.40;1.00
1277;DHT22;631;51.024;13.826;2022-07-23T04:42:29;19.40;1.00
1277;DHT22;631;51.024;13.826;2022-07-23T04:44:55;19.50;1.00
1277;DHT22;631;51.024;13.826;2022-07-23T04:47:21;19.70;1.00
1277;DHT22;631;51.024;13.826;2022-07-23T04:49:46;19.70;1.00
1277;DHT22;631;51.024;13.826;2022-07-23T04:52:12;19.80;1.00
1277;DHT22;631;51.024;13.826;2022-07-23T04:54:37;19.80;1.00
1277;DHT22;631;51.024;13.826;2022-07-23T04:57:03;19.80;1.00
1277;DHT22;631;51.024;13.826;2022-07-23T04:59:28;19.90;1.00
1277;DHT22;631;51.024;13.826;2022-07-23T05:01:54;19.90;1.00
1277;DHT22;631;51.024;13.826;2022-07-23T05:04:19;20.00;1.00
1277;DHT22;631;51.024;13.826;2022-07-23T05:06:45;20.10;1.00
1277;DHT22;631;51.024;13.826;2022-07-23T05:09:11;20.10;1.00
1277;DHT22;631;51.024;13.826;2022-07-23T05:11:36;20.20;1.00
1277;DHT22;631;51.024;13.826;2022-07-23T05:14:02;20.30;1.00
1277;DHT22;631;51.024;13.826;2022-07-23T05:16:28;20.30;1.00
1277;DHT22;631;51.024;13.826;2022-07-23T05:18:53;20.30;1.00
1277;DHT22;631;51.024;13.826;2022-07-23T05:21:19;20.40;1.00
1277;DHT22;631;51.024;13.826;2022-07-23T05:23:45;20.50;1.00
1277;DHT22;631;51.024;13.826;2022-07-23T05:26:10;20.60;1.00
1277;DHT22;631;51.024;13.826;2022-07-23T05:28:36;20.60;1.00
1277;DHT22;631;51.024;13.826;2022-07-23T05:31:02;20.70;1.00
1277;DHT22;631;51.024;13.826;2022-07-23T05:33:29;20.90;1.00
1277;DHT22;631;51.024;13.826;2022-07-23T05:36:02;20.90;1.00
1277;DHT22;631;51.024;13.826;2022-07-23T05:38:28;20.90;1.00
1277;DHT22;631;51.024;13.826;2022-07-23T05:40:54;20.90;1.00
1277;DHT22;631;51.024;13.826;2022-07-23T05:43:19;21.00;1.00
1277;DHT22;631;51.024;13.826;2022-07-23T05:45:45;21.00;1.00
1277;DHT22;631;51.024;13.826;2022-07-23T05:48:11;21.00;1.00
1277;DHT22;631;51.024;13.826;2022-07-23T05:50:36;21.00;1.00
1277;DHT22;631;51.024;13.826;2022-07-23T05:53:02;21.00;1.00
1277;DHT22;631;51.024;13.826;2022-07-23T05:55:28;21.10;1.00
1277;DHT22;631;51.024;13.826;2022-07-23T05:57:57;21.10;1.00
1277;DHT22;631;51.024;13.826;2022-07-23T06:00:23;21.10;1.00
1277;DHT22;631;51.024;13.826;2022-07-23T06:02:49;21.20;1.00
1277;DHT22;631;51.024;13.826;2022-07-23T06:05:14;21.20;1.00
1277;DHT22;631;51.024;13.826;2022-07-23T06:07:40;21.20;1.00
1277;DHT22;631;51.024;13.826;2022-07-23T06:10:06;21.20;1.00
1277;DHT22;631;51.024;13.826;2022-07-23T06:12:32;21.30;99.90
1277;DHT22;631;51.024;13.826;2022-07-23T06:14:57;21.20;99.90
1277;DHT22;631;51.024;13.826;2022-07-23T06:17:23;21.10;1.00
1277;DHT22;631;51.024;13.826;2022-07-23T06:19:49;21.00;1.00
1277;DHT22;631;51.024;13.826;2022-07-23T06:22:14;21.00;1.00
1277;DHT22;631;51.024;13.826;2022-07-23T06:24:40;20.90;1.00
1277;DHT22;631;51.024;13.826;2022-07-23T06:27:05;20.80;1.00
1277;DHT22;631;51.024;13.826;2022-07-23T06:29:31;20.70;1.00
1277;DHT22;631;51.024;13.826;2022-07-23T06:31:57;20.70;1.00
1277;DHT22;631;51.024;13.826;2022-07-23T06:34:22;20.50;1.00
1277;DHT22;631;51.024;13.826;2022-07-23T06:36:48;20.40;1.00
1277;DHT22;631;51.024;13.826;2022-07-23T06:39:14;20.40;1.00
1277;DHT22;631;51.024;13.826;2022-07-23T06:41:39;20.20;1.00
1277;DHT22;631;51.024;13.826;2022-07-23T06:44:05;20.10;1.00
1277;DHT22;631;51.024;13.826;2022-07-23T06:46:31;20.00;1.00
1277;DHT22;631;51.024;13.826;2022-07-23T06:48:57;19.90;1.00
1277;DHT22;631;51.024;13.826;2022-07-23T06:51:22;20.00;1.00
1277;DHT22;631;51.024;13.826;2022-07-23T06:53:48;20.10;1.00
1277;DHT22;631;51.024;13.826;2022-07-23T06:56:14;20.20;1.00
1277;DHT22;631;51.024;13.826;2022-07-23T06:58:39;20.40;1.00
1277;DHT22;631;51.024;13.826;2022-07-23T07:01:08;20.50;1.00
1277;DHT22;631;51.024;13.826;2022-07-23T07:03:34;20.60;1.00
1277;DHT22;631;51.024;13.826;2022-07-23T07:05:59;20.80;1.00
1277;DHT22;631;51.024;13.826;2022-07-23T07:08:25;20.80;1.00
1277;DHT22;631;51.024;13.826;2022-07-23T07:10:51;20.80;1.00
1277;DHT22;631;51.024;13.826;2022-07-23T07:13:16;20.80;1.00
1277;DHT22;631;51.024;13.826;2022-07-23T07:15:42;20.80;1.00
1277;DHT22;631;51.024;13.826;2022-07-23T07:18:07;20.80;1.00
1277;DHT22;631;51.024;13.826;2022-07-23T07:20:33;20.80;1.00
1277;DHT22;631;51.024;13.826;2022-07-23T07:22:59;21.00;1.00
1277;DHT22;631;51.024;13.826;2022-07-23T07:25:24;21.20;99.90
1277;DHT22;631;51.024;13.826;2022-07-23T07:27:50;21.50;99.90
1277;DHT22;631;51.024;13.826;2022-07-23T07:30:16;21.60;99.90
1277;DHT22;631;51.024;13.826;2022-07-23T07:32:41;21.70;1.70
1277;DHT22;631;51.024;13.826;2022-07-23T07:35:08;21.80;1.00
1277;DHT22;631;51.024;13.826;2022-07-23T07:37:34;22.00;1.00
1277;DHT22;631;51.024;13.826;2022-07-23T07:39:59;22.10;99.90
1277;DHT22;631;51.024;13.826;2022-07-23T07:42:26;22.20;1.00
1277;DHT22;631;51.024;13.826;2022-07-23T07:44:52;22.20;99.90
1277;DHT22;631;51.024;13.826;2022-07-23T07:47:17;22.50;1.00
1277;DHT22;631;51.024;13.826;2022-07-23T07:49:43;22.60;1.00
1277;DHT22;631;51.024;13.826;2022-07-23T07:52:09;22.90;1.00
1277;DHT22;631;51.024;13.826;2022-07-23T07:54:35;23.20;1.00
1277;DHT22;631;51.024;13.826;2022-07-23T07:57:01;23.40;1.00
1277;DHT22;631;51.024;13.826;2022-07-23T07:59:27;23.30;1.00
1277;DHT22;631;51.024;13.826;2022-07-23T08:01:52;23.30;99.90
1277;DHT22;631;51.024;13.826;2022-07-23T08:04:18;23.30;99.90
1277;DHT22;631;51.024;13.826;2022-07-23T08:06:44;23.40;1.00
1277;DHT22;631;51.024;13.826;2022-07-23T08:09:09;23.70;8.00
1277;DHT22;631;51.024;13.826;2022-07-23T08:11:35;24.00;99.90
1277;DHT22;631;51.024;13.826;2022-07-23T08:14:01;24.20;99.90
1277;DHT22;631;51.024;13.826;2022-07-23T08:16:26;24.30;1.00
1277;DHT22;631;51.024;13.826;2022-07-23T08:18:52;24.50;99.90
1277;DHT22;631;51.024;13.826;2022-07-23T08:21:18;24.60;1.00
1277;DHT22;631;51.024;13.826;2022-07-23T08:23:43;24.80;99.90
1277;DHT22;631;51.024;13.826;2022-07-23T08:26:09;25.00;99.90
1277;DHT22;631;51.024;13.826;2022-07-23T08:28:34;25.30;1.00
1277;DHT22;631;51.024;13.826;2022-07-23T08:31:00;25.50;1.00
1277;DHT22;631;51.024;13.826;2022-07-23T08:33:26;25.60;1.00
1277;DHT22;631;51.024;13.826;2022-07-23T08:35:52;25.60;1.00
1277;DHT22;631;51.024;13.826;2022-07-23T08:38:22;25.80;1.00
1277;DHT22;631;51.024;13.826;2022-07-23T08:40:53;25.90;1.00
1277;DHT22;631;51.024;13.826;2022-07-23T08:43:27;25.80;1.00
1277;DHT22;631;51.024;13.826;2022-07-23T08:45:56;25.90;1.00
1277;DHT22;631;51.024;13.826;2022-07-23T08:48:27;26.10;1.00
1277;DHT22;631;51.024;13.826;2022-07-23T08:51:03;26.20;1.00
1277;DHT22;631;51.024;13.826;2022-07-23T08:53:30;26.10;1.00
1277;DHT22;631;51.024;13.826;2022-07-23T08:56:00;26.10;1.00
1277;DHT22;631;51.024;13.826;2022-07-23T08:58:30;26.00;1.00
1277;DHT22;631;51.024;13.826;2022-07-23T09:00:56;26.10;1.00
1277;DHT22;631;51.024;13.826;2022-07-23T09:03:33;26.10;1.00
1277;DHT22;631;51.024;13.826;2022-07-23T09:05:59;26.40;1.00
1277;DHT22;631;51.024;13.826;2022-07-23T09:08:37;26.60;1.00
1277;DHT22;631;51.024;13.826;2022-07-23T09:11:15;26.50;99.90
1277;DHT22;631;51.024;13.826;2022-07-23T09:16:33;26.40;99.90
1277;DHT22;631;51.024;13.826;2022-07-23T09:19:00;26.20;99.90
1277;DHT22;631;51.024;13.826;2022-07-23T09:24:07;26.30;99.90
1277;DHT22;631;51.024;13.826;2022-07-23T09:29:01;27.10;99.90
1277;DHT22;631;51.024;13.826;2022-07-23T09:31:42;27.30;99.90
1277;DHT22;631;51.024;13.826;2022-07-23T09:34:29;27.70;99.90
1277;DHT22;631;51.024;13.826;2022-07-23T09:36:58;27.40;99.90
1277;DHT22;631;51.024;13.826;2022-07-23T09:39:33;27.40;99.90
1277;DHT22;631;51.024;13.826;2022-07-23T09:42:16;27.60;99.90
1277;DHT22;631;51.024;13.826;2022-07-23T09:44:44;27.90;99.90
1277;DHT22;631;51.024;13.826;2022-07-23T09:47:10;28.10;99.90
1277;DHT22;631;51.024;13.826;2022-07-23T09:49:35;28.00;99.90
1277;DHT22;631;51.024;13.826;2022-07-23T09:52:01;27.70;99.90
1277;DHT22;631;51.024;13.826;2022-07-23T09:54:38;27.60;99.90
1277;DHT22;631;51.024;13.826;2022-07-23T09:57:10;27.50;99.90
1277;DHT22;631;51.024;13.826;2022-07-23T09:59:42;27.40;99.90
1277;DHT22;631;51.024;13.826;2022-07-23T10:02:11;27.40;99.90
1277;DHT22;631;51.024;13.826;2022-07-23T10:04:38;27.70;99.90
1277;DHT22;631;51.024;13.826;2022-07-23T10:07:06;27.60;99.90
1277;DHT22;631;51.024;13.826;2022-07-23T10:09:34;27.40;99.90
1277;DHT22;631;51.024;13.826;2022-07-23T10:12:04;27.40;99.90
1277;DHT22;631;51.024;13.826;2022-07-23T10:14:40;27.50;99.90
1277;DHT22;631;51.024;13.826;2022-07-23T10:17:07;27.60;99.90
1277;DHT22;631;51.024;13.826;2022-07-23T10:19:33;27.60;99.90
1277;DHT22;631;51.024;13.826;2022-07-23T10:22:02;27.90;99.90
1277;DHT22;631;51.024;13.826;2022-07-23T10:30:22;28.70;99.90
1277;DHT22;631;51.024;13.826;2022-07-23T10:33:18;28.80;99.90
1277;DHT22;631;51.024;13.826;2022-07-23T10:36:03;28.70;99.90
1277;DHT22;631;51.024;13.826;2022-07-23T10:38:54;28.50;99.90
1277;DHT22;631;51.024;13.826;2022-07-23T10:41:35;28.40;99.90
1277;DHT22;631;51.024;13.826;2022-07-23T10:44:12;28.40;99.90
1277;DHT22;631;51.024;13.826;2022-07-23T10:47:00;28.20;99.90
1277;DHT22;631;51.024;13.826;2022-07-23T10:49:49;28.00;99.90
1277;DHT22;631;51.024;13.826;2022-07-23T10:52:21;27.80;99.90
1277;DHT22;631;51.024;13.826;2022-07-23T10:54:53;28.00;99.90
1277;DHT22;631;51.024;13.826;2022-07-23T10:57:26;28.20;99.90
1277;DHT22;631;51.024;13.826;2022-07-23T11:02:33;28.10;99.90
1277;DHT22;631;51.024;13.826;2022-07-23T11:05:10;28.20;99.90
1277;DHT22;631;51.024;13.826;2022-07-23T11:08:10;28.40;99.90
1277;DHT22;631;51.024;13.826;2022-07-23T11:10:48;28.60;99.90
1277;DHT22;631;51.024;13.826;2022-07-23T11:13:26;28.50;99.90
1277;DHT22;631;51.024;13.826;2022-07-23T11:26:45;29.10;99.90
1277;DHT22;631;51.024;13.826;2022-07-23T11:31:55;29.10;99.90
1277;DHT22;631;51.024;13.826;2022-07-23T11:34:40;29.10;99.90
1277;DHT22;631;51.024;13.826;2022-07-23T11:37:11;29.30;99.90
1277;DHT22;631;51.024;13.826;2022-07-23T11:39:37;29.20;99.90
1277;DHT22;631;51.024;13.826;2022-07-23T11:42:06;29.20;99.90
1277;DHT22;631;51.024;13.826;2022-07-23T11:44:36;28.90;99.90
1277;DHT22;631;51.024;13.826;2022-07-23T11:47:03;28.50;99.90
1277;DHT22;631;51.024;13.826;2022-07-23T11:49:30;28.30;99.90
1277;DHT22;631;51.024;13.826;2022-07-23T11:52:22;28.30;99.90
1277;DHT22;631;51.024;13.826;2022-07-23T11:54:54;27.90;99.90
1277;DHT22;631;51.024;13.826;2022-07-23T11:57:24;27.80;99.90
1277;DHT22;631;51.024;13.826;2022-07-23T11:59:53;27.40;99.90
1277;DHT22;631;51.024;13.826;2022-07-23T12:02:21;27.40;99.90
1277;DHT22;631;51.024;13.826;2022-07-23T12:04:49;27.30;99.90
1277;DHT22;631;51.024;13.826;2022-07-23T12:07:49;27.10;99.90
1277;DHT22;631;51.024;13.826;2022-07-23T12:12:54;27.10;99.90
1277;DHT22;631;51.024;13.826;2022-07-23T12:15:29;26.90;99.90
1277;DHT22;631;51.024;13.826;2022-07-23T12:17:57;26.70;99.90
1277;DHT22;631;51.024;13.826;2022-07-23T12:20:28;26.70;99.90
1277;DHT22;631;51.024;13.826;2022-07-23T12:22:59;26.60;99.90
1277;DHT22;631;51.024;13.826;2022-07-23T12:25:29;26.50;99.90
1277;DHT22;631;51.024;13.826;2022-07-23T12:28:04;26.30;99.90
1277;DHT22;631;51.024;13.826;2022-07-23T12:30:38;26.10;99.90
1277;DHT22;631;51.024;13.826;2022-07-23T12:33:05;25.90;1.00
1277;DHT22;631;51.024;13.826;2022-07-23T12:35:34;25.70;1.00
1277;DHT22;631;51.024;13.826;2022-07-23T12:38:03;25.70;1.00
1277;DHT22;631;51.024;13.826;2022-07-23T12:40:48;25.60;1.00
1277;DHT22;631;51.024;13.826;2022-07-23T12:43:37;25.60;1.00
1277;DHT22;631;51.024;13.826;2022-07-23T12:48:35;25.90;1.00
1277;DHT22;631;51.024;13.826;2022-07-23T12:56:04;26.10;1.00
1277;DHT22;631;51.024;13.826;2022-07-23T13:06:26;26.10;1.00
1277;DHT22;631;51.024;13.826;2022-07-23T13:08:52;26.20;1.00
1277;DHT22;631;51.024;13.826;2022-07-23T13:11:17;26.30;1.00
1277;DHT22;631;51.024;13.826;2022-07-23T13:13:43;26.60;1.00
1277;DHT22;631;51.024;13.826;2022-07-23T13:16:09;27.10;99.90
1277;DHT22;631;51.024;13.826;2022-07-23T13:18:34;27.50;99.90
1277;DHT22;631;51.024;13.826;2022-07-23T13:21:00;27.60;99.90
1277;DHT22;631;51.024;13.826;2022-07-23T13:23:26;27.60;99.90
1277;DHT22;631;51.024;13.826;2022-07-23T13:25:52;27.80;99.90
1277;DHT22;631;51.024;13.826;2022-07-23T13:28:19;27.90;99.90
1277;DHT22;631;51.024;13.826;2022-07-23T13:30:45;28.00;99.90
1277;DHT22;631;51.024;13.826;2022-07-23T13:33:11;28.20;99.90
1277;DHT22;631;51.024;13.826;2022-07-23T13:35:37;28.30;99.90
1277;DHT22;631;51.024;13.826;2022-07-23T13:38:04;28.20;99.90
1277;DHT22;631;51.024;13.826;2022-07-23T13:40:33;28.30;99.90
1277;DHT22;631;51.024;13.826;2022-07-23T13:42:59;28.20;99.90
1277;DHT22;631;51.024;13.826;2022-07-23T13:45:25;28.10;99.90
1277;DHT22;631;51.024;13.826;2022-07-23T13:47:51;27.90;99.90
1277;DHT22;631;51.024;13.826;2022-07-23T13:50:17;27.90;99.90
1277;DHT22;631;51.024;13.826;2022-07-23T13:52:43;27.80;99.90
1277;DHT22;631;51.024;13.826;2022-07-23T13:55:09;28.00;99.90
1277;DHT22;631;51.024;13.826;2022-07-23T13:57:35;28.50;99.90
1277;DHT22;631;51.024;13.826;2022-07-23T14:00:01;28.90;99.90
1277;DHT22;631;51.024;13.826;2022-07-23T14:02:27;29.30;99.90
1277;DHT22;631;51.024;13.826;2022-07-23T14:04:54;29.50;99.90
1277;DHT22;631;51.024;13.826;2022-07-23T14:07:20;29.60;99.90
1277;DHT22;631;51.024;13.826;2022-07-23T14:09:46;29.80;99.90
1277;DHT22;631;51.024;13.826;2022-07-23T14:12:12;30.10;99.90
1277;DHT22;631;51.024;13.826;2022-07-23T14:14:37;30.00;99.90
1277;DHT22;631;51.024;13.826;2022-07-23T14:17:03;29.60;99.90
1277;DHT22;631;51.024;13.826;2022-07-23T14:19:29;29.30;99.90
1277;DHT22;631;51.024;13.826;2022-07-23T14:21:55;29.00;99.90
1277;DHT22;631;51.024;13.826;2022-07-23T14:24:20;28.50;99.90
1277;DHT22;631;51.024;13.826;2022-07-23T14:26:46;28.30;99.90
1277;DHT22;631;51.024;13.826;2022-07-23T14:29:12;28.10;99.90
1277;DHT22;631;51.024;13.826;2022-07-23T14:31:37;27.90;99.90
1277;DHT22;631;51.024;13.826;2022-07-23T14:34:03;27.80;99.90
1277;DHT22;631;51.024;13.826;2022-07-23T14:36:29;27.50;99.90
1277;DHT22;631;51.024;13.826;2022-07-23T14:38:54;27.30;99.90
1277;DHT22;631;51.024;13.826;2022-07-23T14:41:20;27.30;99.90
1277;DHT22;631;51.024;13.826;2022-07-23T14:43:46;27.40;99.90
1277;DHT22;631;51.024;13.826;2022-07-23T14:46:12;27.40;99.90
1277;DHT22;631;51.024;13.826;2022-07-23T14:48:38;27.60;99.90
1277;DHT22;631;51.024;13.826;2022-07-23T14:51:04;27.50;99.90
1277;DHT22;631;51.024;13.826;2022-07-23T14:53:29;27.70;99.90
1277;DHT22;631;51.024;13.826;2022-07-23T14:55:55;28.00;99.90
1277;DHT22;631;51.024;13.826;2022-07-23T14:58:23;28.50;99.90
1277;DHT22;631;51.024;13.826;2022-07-23T15:00:49;29.60;99.90
1277;DHT22;631;51.024;13.826;2022-07-23T15:03:15;30.40;99.90
1277;DHT22;631;51.024;13.826;2022-07-23T15:05:41;31.20;99.90
1277;DHT22;631;51.024;13.826;2022-07-23T15:08:07;31.80;99.90
1277;DHT22;631;51.024;13.826;2022-07-23T15:10:33;32.30;99.90
1277;DHT22;631;51.024;13.826;2022-07-23T15:12:58;32.30;99.90
1277;DHT22;631;51.024;13.826;2022-07-23T15:15:24;31.90;99.90
1277;DHT22;631;51.024;13.826;2022-07-23T15:17:49;31.30;99.90
1277;DHT22;631;51.024;13.826;2022-07-23T15:20:15;30.70;99.90
1277;DHT22;631;51.024;13.826;2022-07-23T15:22:41;30.40;99.90
1277;DHT22;631;51.024;13.826;2022-07-23T15:25:07;30.00;99.90
1277;DHT22;631;51.024;13.826;2022-07-23T15:27:33;29.60;99.90
1277;DHT22;631;51.024;13.826;2022-07-23T15:29:59;29.40;99.90
1277;DHT22;631;51.024;13.826;2022-07-23T15:32:24;29.20;99.90
1277;DHT22;631;51.024;13.826;2022-07-23T15:34:52;29.00;99.90
1277;DHT22;631;51.024;13.826;2022-07-23T15:37:18;28.70;99.90
1277;DHT22;631;51.024;13.826;2022-07-23T15:39:44;28.30;99.90
1277;DHT22;631;51.024;13.826;2022-07-23T15:42:09;28.10;99.90
1277;DHT22;631;51.024;13.826;2022-07-23T15:44:35;28.00;99.90
1277;DHT22;631;51.024;13.826;2022-07-23T15:47:01;28.00;99.90
1277;DHT22;631;51.024;13.826;2022-07-23T15:49:27;27.80;99.90
1277;DHT22;631;51.024;13.826;2022-07-23T15:51:53;27.70;99.90
1277;DHT22;631;51.024;13.826;2022-07-23T15:54:20;27.60;99.90
1277;DHT22;631;51.024;13.826;2022-07-23T15:56:46;27.60;99.90
1277;DHT22;631;51.024;13.826;2022-07-23T15:59:12;27.60;99.90
1277;DHT22;631;51.024;13.826;2022-07-23T16:01:38;27.60;99.90
1277;DHT22;631;51.024;13.826;2022-07-23T16:04:03;27.50;99.90
1277;DHT22;631;51.024;13.826;2022-07-23T16:06:32;27.40;99.90
1277;DHT22;631;51.024;13.826;2022-07-23T16:08:57;27.40;99.90
1277;DHT22;631;51.024;13.826;2022-07-23T16:11:23;27.40;99.90
1277;DHT22;631;51.024;13.826;2022-07-23T16:13:49;27.40;99.90
1277;DHT22;631;51.024;13.826;2022-07-23T16:16:14;27.60;99.90
1277;DHT22;631;51.024;13.826;2022-07-23T16:18:40;27.50;99.90
1277;DHT22;631;51.024;13.826;2022-07-23T16:21:06;27.50;99.90
1277;DHT22;631;51.024;13.826;2022-07-23T16:23:31;27.60;99.90
1277;DHT22;631;51.024;13.826;2022-07-23T16:25:58;27.40;99.90
1277;DHT22;631;51.024;13.826;2022-07-23T16:28:24;27.40;99.90
1277;DHT22;631;51.024;13.826;2022-07-23T16:30:49;27.60;99.90
1277;DHT22;631;51.024;13.826;2022-07-23T16:33:15;27.70;99.90
1277;DHT22;631;51.024;13.826;2022-07-23T16:35:41;28.00;99.90
1277;DHT22;631;51.024;13.826;2022-07-23T16:38:07;28.20;99.90
1277;DHT22;631;51.024;13.826;2022-07-23T16:40:32;28.40;99.90
1277;DHT22;631;51.024;13.826;2022-07-23T16:42:59;28.50;99.90
1277;DHT22;631;51.024;13.826;2022-07-23T16:45:24;28.50;99.90
1277;DHT22;631;51.024;13.826;2022-07-23T16:47:50;28.50;99.90
1277;DHT22;631;51.024;13.826;2022-07-23T16:50:17;28.40;99.90
1277;DHT22;631;51.024;13.826;2022-07-23T16:52:42;28.20;99.90
1277;DHT22;631;51.024;13.826;2022-07-23T16:55:08;28.10;99.90
1277;DHT22;631;51.024;13.826;2022-07-23T16:57:34;28.00;99.90
1277;DHT22;631;51.024;13.826;2022-07-23T17:00:00;27.50;99.90